Damascus, Arkansas
Current Conditions -  °F | °C
As of 10:15 AM on Sunday 23 Nov 2014 (Local Time) from KCCA Reporting Station
Light Rain Light Rain  
Wind Chill: 59°   Ceiling: 1000
Heat Index: 59°   Visibility: 4mi
Dew Point: 59°   Wind: 0mph
Humidity: 100%   Direction: NA
Pressure: 29.56"   Gusts: NA
Location:  35.36°N, 92.41°W
Report Text: KCCA 231615Z AUTO 00000KT 4SM -RA OVC010 15/15 A2956 RMK AO2 P0003
Loading
Personal Weather Stations






























Interactive Weather Map New forecast layout! Learn more

10-Day Weather Forecast

Advertisements
Track Severe Weather on mobile